Portada
METAR-TAF:

METAR-TAF

Aeropuertos :

Lanzarote, España

Aeropuerto de Lanzarote

latitud: 28-57N, longitud: 013-36W, altitud: 14 m

Observación

El informe se hizo hace 24 minutos, a las 22:30 UTC
Viento 9 kt del norte-noreste
Temperatura 24°C
Humedad 78%
Presión 1015 hPa
Visibilidad 10 km o más
Escasas nubes a una altura de 2000 ft

METAR: GCRR 202230Z 02009KT 9999 FEW020 24/20 Q1015

Hora: 23:54 (22:54 UTC)

Pronóstico

El informe se hizo hace 2 horas y 54 minutos, a las 20:00 UTC
Pronóstico válido del 20 a las 21 UTC al 21 a las 21 UTC
Viento 16 kt del norte
Visibilidad 10 km o más
Escasas nubes a una altura de 2000 ft

TAF: GCRR 202000Z 2021/2121 01016KT 9999 FEW020 TX31/2113Z TN22/2106Z

Observaciones y pronósticos meteorológicos de más de 4000 aeropuertos (mensajes METAR y TAF).

Los puntos amarillos y rojos representan las estaciones disponibles.

Ponga el ratón en el punto deseado para ver el nombre de la estación.

Haga clic para ver las observaciones y los pronósticos meteorológicos.

Para cambiar el mapa : haga clic en los botones verdes con una cruz de color negro para hacer un zoom, en el botón verde con un guión para alejar o en las flechas verdes para mapas adyacentes.


METAR-TAF: